GVAC/SID METAR and TAF weather

Enter ICAO airport designator
Station Type Date Time Source
GVAC METAR 2021/09/24 03:00 UTC NOAA

GVAC 240300Z 02011KT 6000 FEW014 BKN100 26/22 Q1014 NOSIG


Station Type Date Time Source
GVAC Decoded METAR 2021/09/24 03:00 UTC NOAA

Sal, Cape Verde (GVAC) 16-44N 022-57W 55M
Sep 23, 2021 - 11:00 PM EDT / 2021.09.24 0300 UTC
Wind: from the NNE (020 degrees) at 13 MPH (11 KT):0
Visibility: 3 mile(s):0
Sky conditions: mostly cloudy
Temperature: 78 F (26 C)
Dew Point: 71 F (22 C)
Relative Humidity: 78%
Pressure (altimeter): 29.94 in. Hg (1014 hPa)
ob: GVAC 240300Z 02011KT 6000 FEW014 BKN100 26/22 Q1014 NOSIG
cycle: 3

Station Type Date Time Source
GVAC TAF 2021/09/23 18:54 UTC NOAA

TAF TAF GVAC 231700Z 2318/2424 04012KT 8000 BKN014

Example: see airport list